sensor_id;sensor_type;location;lat;lon;timestamp;pressure;altitude;pressure_sealevel;temperature;humidity
58534;BME280;44109;52.398;7.024;2023-01-05T00:01:44;101079.97;;;10.62;100.00
58534;BME280;44109;52.398;7.024;2023-01-05T00:04:12;101105.72;;;10.79;100.00
58534;BME280;44109;52.398;7.024;2023-01-05T00:06:41;101096.13;;;10.76;100.00
58534;BME280;44109;52.398;7.024;2023-01-05T00:09:13;101100.06;;;10.56;100.00
58534;BME280;44109;52.398;7.024;2023-01-05T00:11:42;101090.84;;;10.52;100.00
58534;BME280;44109;52.398;7.024;2023-01-05T00:14:30;101100.06;;;10.56;100.00
58534;BME280;44109;52.398;7.024;2023-01-05T00:17:18;101098.25;;;10.63;100.00
58534;BME280;44109;52.398;7.024;2023-01-05T00:20:08;101084.00;;;10.46;100.00
58534;BME280;44109;52.398;7.024;2023-01-05T00:22:58;101100.78;;;10.53;100.00
58534;BME280;44109;52.398;7.024;2023-01-05T00:25:28;101104.53;;;10.60;100.00
58534;BME280;44109;52.398;7.024;2023-01-05T00:27:57;101093.50;;;10.64;100.00
58534;BME280;44109;52.398;7.024;2023-01-05T00:30:28;101100.81;;;10.72;100.00
58534;BME280;44109;52.398;7.024;2023-01-05T00:32:58;101102.53;;;10.61;100.00
58534;BME280;44109;52.398;7.024;2023-01-05T00:35:26;101102.44;;;10.73;100.00
58534;BME280;44109;52.398;7.024;2023-01-05T00:37:55;101090.81;;;10.87;100.00
58534;BME280;44109;52.398;7.024;2023-01-05T00:40:23;101096.00;;;10.88;100.00
58534;BME280;44109;52.398;7.024;2023-01-05T00:42:50;101103.31;;;10.77;100.00
58534;BME280;44109;52.398;7.024;2023-01-05T00:45:18;101063.19;;;10.55;100.00
58534;BME280;44109;52.398;7.024;2023-01-05T00:47:48;101102.84;;;10.75;100.00
58534;BME280;44109;52.398;7.024;2023-01-05T00:50:17;101110.88;;;10.80;100.00
58534;BME280;44109;52.398;7.024;2023-01-05T00:52:46;101098.34;;;10.86;100.00
58534;BME280;44109;52.398;7.024;2023-01-05T00:55:14;101114.25;;;10.89;100.00
58534;BME280;44109;52.398;7.024;2023-01-05T00:57:42;101119.09;;;10.92;100.00
58534;BME280;44109;52.398;7.024;2023-01-05T01:05:10;101103.09;;;10.86;100.00
58534;BME280;44109;52.398;7.024;2023-01-05T01:07:37;101120.13;;;11.04;100.00
58534;BME280;44109;52.398;7.024;2023-01-05T01:10:06;101096.13;;;10.76;100.00
58534;BME280;44109;52.398;7.024;2023-01-05T01:12:35;101108.44;;;10.95;100.00
58534;BME280;44109;52.398;7.024;2023-01-05T01:15:04;101117.53;;;10.76;100.00
58534;BME280;44109;52.398;7.024;2023-01-05T01:17:38;101125.78;;;10.72;100.00
58534;BME280;44109;52.398;7.024;2023-01-05T01:20:08;101126.50;;;10.69;100.00
58534;BME280;44109;52.398;7.024;2023-01-05T01:22:39;101080.25;;;10.38;100.00
58534;BME280;44109;52.398;7.024;2023-01-05T01:25:07;101138.22;;;10.78;100.00
58534;BME280;44109;52.398;7.024;2023-01-05T01:27:35;101144.25;;;10.49;100.00
58534;BME280;44109;52.398;7.024;2023-01-05T01:30:04;101130.84;;;10.51;100.00
58534;BME280;44109;52.398;7.024;2023-01-05T01:32:32;101137.28;;;10.55;100.00
58534;BME280;44109;52.398;7.024;2023-01-05T01:35:00;101155.81;;;10.51;100.00
58534;BME280;44109;52.398;7.024;2023-01-05T01:37:29;101137.16;;;10.67;100.00
58534;BME280;44109;52.398;7.024;2023-01-05T01:39:56;101138.28;;;10.47;100.00
58534;BME280;44109;52.398;7.024;2023-01-05T01:42:24;101140.41;;;10.53;100.00
58534;BME280;44109;52.398;7.024;2023-01-05T01:44:56;101166.25;;;10.57;100.00
58534;BME280;44109;52.398;7.024;2023-01-05T01:47:30;101157.53;;;10.39;100.00
58534;BME280;44109;52.398;7.024;2023-01-05T01:50:07;101158.78;;;10.42;100.00
58534;BME280;44109;52.398;7.024;2023-01-05T01:52:41;101170.34;;;10.28;100.00
58534;BME280;44109;52.398;7.024;2023-01-05T01:55:12;101179.19;;;10.50;100.00
58534;BME280;44109;52.398;7.024;2023-01-05T01:57:41;101191.25;;;10.41;100.00
58534;BME280;44109;52.398;7.024;2023-01-05T02:00:12;101181.53;;;10.32;100.00
58534;BME280;44109;52.398;7.024;2023-01-05T02:02:40;101183.31;;;10.24;100.00
58534;BME280;44109;52.398;7.024;2023-01-05T02:05:10;101187.13;;;10.35;100.00
58534;BME280;44109;52.398;7.024;2023-01-05T02:07:45;101184.34;;;10.35;100.00
58534;BME280;44109;52.398;7.024;2023-01-05T02:10:16;101187.88;;;10.32;100.00
58534;BME280;44109;52.398;7.024;2023-01-05T02:13:01;101189.75;;;10.28;100.00
58534;BME280;44109;52.398;7.024;2023-01-05T02:15:43;101182.56;;;10.43;100.00
58534;BME280;44109;52.398;7.024;2023-01-05T02:18:26;101189.47;;;10.33;100.00
58534;BME280;44109;52.398;7.024;2023-01-05T02:21:17;101205.22;;;10.29;100.00
58534;BME280;44109;52.398;7.024;2023-01-05T02:27:37;101192.69;;;10.35;100.00
58534;BME280;44109;52.398;7.024;2023-01-05T02:30:49;101186.50;;;10.10;100.00
58534;BME280;44109;52.398;7.024;2023-01-05T02:33:37;101192.44;;;10.25;100.00
58534;BME280;44109;52.398;7.024;2023-01-05T02:36:15;101189.78;;;10.16;100.00
58534;BME280;44109;52.398;7.024;2023-01-05T02:38:54;101195.66;;;10.27;100.00
58534;BME280;44109;52.398;7.024;2023-01-05T02:41:32;101201.63;;;10.13;100.00
58534;BME280;44109;52.398;7.024;2023-01-05T02:44:05;101196.06;;;10.13;100.00
58534;BME280;44109;52.398;7.024;2023-01-05T02:46:35;101174.06;;;10.20;100.00
58534;BME280;44109;52.398;7.024;2023-01-05T02:49:04;101199.91;;;10.40;100.00
58534;BME280;44109;52.398;7.024;2023-01-05T02:51:35;101186.75;;;10.21;100.00
58534;BME280;44109;52.398;7.024;2023-01-05T02:54:08;101189.47;;;10.33;100.00
58534;BME280;44109;52.398;7.024;2023-01-05T02:56:43;101190.88;;;10.11;100.00
58534;BME280;44109;52.398;7.024;2023-01-05T02:59:19;101192.75;;;10.23;100.00
58534;BME280;44109;52.398;7.024;2023-01-05T03:01:57;101187.75;;;9.97;100.00
58534;BME280;44109;52.398;7.024;2023-01-05T03:04:30;101170.03;;;9.86;100.00
58534;BME280;44109;52.398;7.024;2023-01-05T03:07:06;101206.53;;;10.20;100.00
58534;BME280;44109;52.398;7.024;2023-01-05T03:09:38;101203.81;;;9.91;100.00
58534;BME280;44109;52.398;7.024;2023-01-05T03:12:14;101208.41;;;10.00;100.00
58534;BME280;44109;52.398;7.024;2023-01-05T03:15:07;101202.75;;;9.96;100.00
58534;BME280;44109;52.398;7.024;2023-01-05T03:17:47;101198.19;;;9.88;100.00
58534;BME280;44109;52.398;7.024;2023-01-05T03:20:22;101218.47;;;9.92;100.00
58534;BME280;44109;52.398;7.024;2023-01-05T03:22:54;101172.78;;;9.70;100.00
58534;BME280;44109;52.398;7.024;2023-01-05T03:25:42;101219.56;;;9.87;100.00
58534;BME280;44109;52.398;7.024;2023-01-05T03:28:34;101211.50;;;9.82;100.00
58534;BME280;44109;52.398;7.024;2023-01-05T03:31:26;101212.19;;;9.79;100.00
58534;BME280;44109;52.398;7.024;2023-01-05T03:34:24;101224.63;;;9.85;100.00
58534;BME280;44109;52.398;7.024;2023-01-05T03:37:16;101224.56;;;9.98;100.00
58534;BME280;44109;52.398;7.024;2023-01-05T03:39:48;101226.00;;;10.07;100.00
58534;BME280;44109;52.398;7.024;2023-01-05T03:42:17;101243.28;;;10.01;100.00
58534;BME280;44109;52.398;7.024;2023-01-05T03:44:48;101229.88;;;9.75;100.00
58534;BME280;44109;52.398;7.024;2023-01-05T03:47:16;101235.22;;;9.96;100.00
58534;BME280;44109;52.398;7.024;2023-01-05T03:49:45;101240.66;;;9.92;100.00
58534;BME280;44109;52.398;7.024;2023-01-05T03:52:12;101239.84;;;9.91;100.00
58534;BME280;44109;52.398;7.024;2023-01-05T03:54:40;101240.56;;;9.88;100.00
58534;BME280;44109;52.398;7.024;2023-01-05T03:57:08;101238.97;;;10.03;100.00
58534;BME280;44109;52.398;7.024;2023-01-05T03:59:35;101215.50;;;9.69;100.00
58534;BME280;44109;52.398;7.024;2023-01-05T04:02:03;101234.72;;;9.78;100.00
58534;BME280;44109;52.398;7.024;2023-01-05T04:04:31;101237.13;;;9.79;100.00
58534;BME280;44109;52.398;7.024;2023-01-05T04:07:00;101235.81;;;9.89;100.00
58534;BME280;44109;52.398;7.024;2023-01-05T04:09:27;101249.13;;;9.83;100.00
58534;BME280;44109;52.398;7.024;2023-01-05T04:11:55;101236.72;;;9.93;100.00
58534;BME280;44109;52.398;7.024;2023-01-05T04:14:22;101244.75;;;9.82;100.00
58534;BME280;44109;52.398;7.024;2023-01-05T04:16:50;101243.44;;;9.92;100.00
58534;BME280;44109;52.398;7.024;2023-01-05T04:19:18;101246.06;;;9.73;100.00
58534;BME280;44109;52.398;7.024;2023-01-05T04:21:45;101250.88;;;10.04;100.00
58534;BME280;44109;52.398;7.024;2023-01-05T04:24:14;101253.38;;;10.09;100.00
58534;BME280;44109;52.398;7.024;2023-01-05T04:26:42;101258.47;;;10.07;100.00
58534;BME280;44109;52.398;7.024;2023-01-05T04:29:10;101255.16;;;10.01;100.00
58534;BME280;44109;52.398;7.024;2023-01-05T04:31:38;101257.81;;;9.98;100.00
58534;BME280;44109;52.398;7.024;2023-01-05T04:34:05;101283.69;;;10.02;100.00
58534;BME280;44109;52.398;7.024;2023-01-05T04:36:33;101256.28;;;9.84;100.00
58534;BME280;44109;52.398;7.024;2023-01-05T04:39:01;101267.03;;;10.02;100.00
58534;BME280;44109;52.398;7.024;2023-01-05T04:41:29;101266.44;;;10.08;100.00
58534;BME280;44109;52.398;7.024;2023-01-05T04:43:57;101275.34;;;10.02;100.00
58534;BME280;44109;52.398;7.024;2023-01-05T04:46:25;101267.56;;;10.35;100.00
58534;BME280;44109;52.398;7.024;2023-01-05T04:48:52;101271.41;;;10.03;100.00
58534;BME280;44109;52.398;7.024;2023-01-05T04:51:20;101286.91;;;10.04;100.00
58534;BME280;44109;52.398;7.024;2023-01-05T04:53:47;101283.88;;;10.09;100.00
58534;BME280;44109;52.398;7.024;2023-01-05T04:56:16;101279.47;;;10.08;100.00
58534;BME280;44109;52.398;7.024;2023-01-05T04:58:45;101278.94;;;10.02;100.00
58534;BME280;44109;52.398;7.024;2023-01-05T05:01:13;101263.63;;;9.93;100.00
58534;BME280;44109;52.398;7.024;2023-01-05T05:03:40;101266.28;;;9.89;100.00
58534;BME280;44109;52.398;7.024;2023-01-05T05:06:08;101289.09;;;10.26;100.00
58534;BME280;44109;52.398;7.024;2023-01-05T05:08:35;101285.66;;;10.17;100.00
58534;BME280;44109;52.398;7.024;2023-01-05T05:11:03;101284.97;;;10.20;100.00
58534;BME280;44109;52.398;7.024;2023-01-05T05:13:31;101293.25;;;10.32;100.00
58534;BME280;44109;52.398;7.024;2023-01-05T05:16:00;101291.63;;;10.31;100.00
58534;BME280;44109;52.398;7.024;2023-01-05T05:18:28;101268.16;;;10.13;100.00
58534;BME280;44109;52.398;7.024;2023-01-05T05:20:56;101289.50;;;10.40;100.00
58534;BME280;44109;52.398;7.024;2023-01-05T05:23:23;101294.81;;;10.18;100.00
58534;BME280;44109;52.398;7.024;2023-01-05T05:25:51;101294.84;;;10.33;100.00
58534;BME280;44109;52.398;7.024;2023-01-05T05:28:20;101300.66;;;10.28;100.00
58534;BME280;44109;52.398;7.024;2023-01-05T05:30:53;101301.50;;;10.45;100.00
58534;BME280;44109;52.398;7.024;2023-01-05T05:33:23;101309.97;;;10.08;100.00
58534;BME280;44109;52.398;7.024;2023-01-05T05:35:52;101323.00;;;9.91;100.00
58534;BME280;44109;52.398;7.024;2023-01-05T05:38:20;101320.41;;;9.99;100.00
58534;BME280;44109;52.398;7.024;2023-01-05T05:40:48;101298.06;;;10.07;100.00
58534;BME280;44109;52.398;7.024;2023-01-05T05:43:16;101325.50;;;9.97;100.00
58534;BME280;44109;52.398;7.024;2023-01-05T05:45:43;101327.66;;;10.03;100.00
58534;BME280;44109;52.398;7.024;2023-01-05T05:48:11;101334.22;;;10.11;100.00
58534;BME280;44109;52.398;7.024;2023-01-05T05:50:40;101337.25;;;10.06;100.00
58534;BME280;44109;52.398;7.024;2023-01-05T05:53:07;101345.31;;;10.11;100.00
58534;BME280;44109;52.398;7.024;2023-01-05T05:55:35;101345.75;;;9.85;100.00
58534;BME280;44109;52.398;7.024;2023-01-05T05:58:03;101350.69;;;9.91;100.00
58534;BME280;44109;52.398;7.024;2023-01-05T06:00:30;101360.63;;;9.93;100.00
58534;BME280;44109;52.398;7.024;2023-01-05T06:02:58;101351.41;;;9.88;100.00
58534;BME280;44109;52.398;7.024;2023-01-05T06:05:25;101359.72;;;9.76;100.00
58534;BME280;44109;52.398;7.024;2023-01-05T06:07:54;101360.31;;;9.82;100.00
58534;BME280;44109;52.398;7.024;2023-01-05T06:10:22;101361.78;;;9.91;100.00
58534;BME280;44109;52.398;7.024;2023-01-05T06:12:52;101371.53;;;10.13;100.00
58534;BME280;44109;52.398;7.024;2023-01-05T06:15:20;101374.88;;;9.79;100.00
58534;BME280;44109;52.398;7.024;2023-01-05T06:17:48;101374.22;;;9.98;100.00
58534;BME280;44109;52.398;7.024;2023-01-05T06:20:16;101372.25;;;9.98;100.00
58534;BME280;44109;52.398;7.024;2023-01-05T06:22:44;101376.66;;;9.99;100.00
58534;BME280;44109;52.398;7.024;2023-01-05T06:25:13;101372.16;;;9.95;100.00
58534;BME280;44109;52.398;7.024;2023-01-05T06:27:41;101373.56;;;9.88;100.00
58534;BME280;44109;52.398;7.024;2023-01-05T06:30:09;101374.09;;;10.06;100.00
58534;BME280;44109;52.398;7.024;2023-01-05T06:32:37;101382.50;;;10.10;100.00
58534;BME280;44109;52.398;7.024;2023-01-05T06:35:05;101389.22;;;10.09;100.00
58534;BME280;44109;52.398;7.024;2023-01-05T06:37:34;101391.72;;;10.14;100.00
58534;BME280;44109;52.398;7.024;2023-01-05T06:40:01;101387.53;;;10.32;100.00
58534;BME280;44109;52.398;7.024;2023-01-05T06:42:30;101388.59;;;10.15;100.00
58534;BME280;44109;52.398;7.024;2023-01-05T06:44:58;101405.16;;;10.40;100.00
58534;BME280;44109;52.398;7.024;2023-01-05T06:47:26;101403.38;;;10.32;100.00
58534;BME280;44109;52.398;7.024;2023-01-05T06:49:53;101406.47;;;10.30;100.00
58534;BME280;44109;52.398;7.024;2023-01-05T06:52:21;101413.97;;;10.30;100.00
58534;BME280;44109;52.398;7.024;2023-01-05T06:54:49;101412.22;;;10.37;100.00
58534;BME280;44109;52.398;7.024;2023-01-05T06:57:16;101427.75;;;10.26;100.00
58534;BME280;44109;52.398;7.024;2023-01-05T06:59:45;101432.22;;;10.31;100.00
58534;BME280;44109;52.398;7.024;2023-01-05T07:02:14;101408.69;;;10.12;100.00
58534;BME280;44109;52.398;7.024;2023-01-05T07:04:43;101430.53;;;10.14;100.00
58534;BME280;44109;52.398;7.024;2023-01-05T07:07:11;101431.53;;;10.34;100.00
58534;BME280;44109;52.398;7.024;2023-01-05T07:09:40;101433.41;;;10.30;100.00
58534;BME280;44109;52.398;7.024;2023-01-05T07:12:10;101446.97;;;10.47;100.00
58534;BME280;44109;52.398;7.024;2023-01-05T07:14:37;101438.72;;;10.23;100.00
58534;BME280;44109;52.398;7.024;2023-01-05T07:17:06;101443.47;;;10.22;100.00
58534;BME280;44109;52.398;7.024;2023-01-05T07:19:34;101441.38;;;10.31;100.00
58534;BME280;44109;52.398;7.024;2023-01-05T07:22:01;101444.97;;;10.20;100.00
58534;BME280;44109;52.398;7.024;2023-01-05T07:24:29;101443.69;;;10.29;100.00
58534;BME280;44109;52.398;7.024;2023-01-05T07:26:57;101441.97;;;10.25;100.00
58534;BME280;44109;52.398;7.024;2023-01-05T07:29:24;101441.16;;;10.52;100.00
58534;BME280;44109;52.398;7.024;2023-01-05T07:31:52;101444.16;;;10.31;100.00
58534;BME280;44109;52.398;7.024;2023-01-05T07:34:22;101407.19;;;10.27;100.00
58534;BME280;44109;52.398;7.024;2023-01-05T07:36:49;101461.53;;;10.44;100.00
58534;BME280;44109;52.398;7.024;2023-01-05T07:39:17;101432.84;;;10.12;100.00
58534;BME280;44109;52.398;7.024;2023-01-05T07:41:45;101448.44;;;10.29;100.00
58534;BME280;44109;52.398;7.024;2023-01-05T07:44:13;101458.81;;;10.32;100.00
58534;BME280;44109;52.398;7.024;2023-01-05T07:46:40;101460.31;;;10.57;100.00
58534;BME280;44109;52.398;7.024;2023-01-05T07:49:08;101451.31;;;10.60;100.00
58534;BME280;44109;52.398;7.024;2023-01-05T07:51:37;101459.66;;;10.48;100.00
58534;BME280;44109;52.398;7.024;2023-01-05T07:54:04;101469.78;;;10.40;100.00
58534;BME280;44109;52.398;7.024;2023-01-05T07:56:32;101477.06;;;10.33;100.00
58534;BME280;44109;52.398;7.024;2023-01-05T07:59:00;101474.00;;;10.50;100.00
58534;BME280;44109;52.398;7.024;2023-01-05T08:01:27;101492.47;;;10.18;100.00
58534;BME280;44109;52.398;7.024;2023-01-05T08:03:55;101482.50;;;10.29;100.00
58534;BME280;44109;52.398;7.024;2023-01-05T08:06:22;101478.13;;;10.56;100.00
58534;BME280;44109;52.398;7.024;2023-01-05T08:08:51;101490.56;;;10.34;100.00
58534;BME280;44109;52.398;7.024;2023-01-05T08:11:19;101495.22;;;10.18;100.00
58534;BME280;44109;52.398;7.024;2023-01-05T08:13:47;101497.88;;;10.14;100.00
58534;BME280;44109;52.398;7.024;2023-01-05T08:16:28;101498.81;;;10.19;100.00
58534;BME280;44109;52.398;7.024;2023-01-05T08:18:57;101507.94;;;10.31;100.00
58534;BME280;44109;52.398;7.024;2023-01-05T08:21:26;101496.75;;;10.56;100.00
58534;BME280;44109;52.398;7.024;2023-01-05T08:23:56;101505.31;;;10.51;100.00
58534;BME280;44109;52.398;7.024;2023-01-05T08:26:24;101515.91;;;10.61;100.00
58534;BME280;44109;52.398;7.024;2023-01-05T08:28:52;101506.38;;;10.74;100.00
58534;BME280;44109;52.398;7.024;2023-01-05T08:31:22;101510.47;;;10.64;100.00
58534;BME280;44109;52.398;7.024;2023-01-05T08:33:54;101506.44;;;10.62;100.00
58534;BME280;44109;52.398;7.024;2023-01-05T08:36:23;101502.50;;;10.91;100.00
58534;BME280;44109;52.398;7.024;2023-01-05T08:38:51;101524.91;;;10.70;100.00
58534;BME280;44109;52.398;7.024;2023-01-05T08:41:25;101535.91;;;10.95;100.00
58534;BME280;44109;52.398;7.024;2023-01-05T08:43:55;101538.25;;;10.80;100.00
58534;BME280;44109;52.398;7.024;2023-01-05T08:46:25;101540.75;;;10.70;100.00
58534;BME280;44109;52.398;7.024;2023-01-05T08:48:56;101545.84;;;10.68;100.00
58534;BME280;44109;52.398;7.024;2023-01-05T08:51:26;101553.41;;;10.83;100.00
58534;BME280;44109;52.398;7.024;2023-01-05T08:53:54;101548.69;;;10.71;100.00
58534;BME280;44109;52.398;7.024;2023-01-05T08:56:24;101534.91;;;10.47;100.00
58534;BME280;44109;52.398;7.024;2023-01-05T08:58:53;101557.75;;;10.68;100.00
58534;BME280;44109;52.398;7.024;2023-01-05T09:01:22;101557.75;;;10.68;100.00
58534;BME280;44109;52.398;7.024;2023-01-05T09:03:50;101557.13;;;10.75;100.00
58534;BME280;44109;52.398;7.024;2023-01-05T09:06:18;101559.19;;;10.50;100.00
58534;BME280;44109;52.398;7.024;2023-01-05T09:08:46;101565.22;;;10.39;100.00
58534;BME280;44109;52.398;7.024;2023-01-05T09:11:16;101564.97;;;10.20;100.00
58534;BME280;44109;52.398;7.024;2023-01-05T09:13:47;101572.59;;;10.35;100.00
58534;BME280;44109;52.398;7.024;2023-01-05T09:16:18;101582.09;;;10.34;100.00
58534;BME280;44109;52.398;7.024;2023-01-05T09:18:49;101580.94;;;10.23;100.00
58534;BME280;44109;52.398;7.024;2023-01-05T09:21:17;101588.09;;;10.12;100.00
58534;BME280;44109;52.398;7.024;2023-01-05T09:23:45;101585.34;;;10.36;100.00
58534;BME280;44109;52.398;7.024;2023-01-05T09:26:13;101587.75;;;10.26;100.00
58534;BME280;44109;52.398;7.024;2023-01-05T09:28:41;101602.00;;;10.24;100.00
58534;BME280;44109;52.398;7.024;2023-01-05T09:31:12;101605.69;;;10.40;100.00
58534;BME280;44109;52.398;7.024;2023-01-05T09:33:41;101607.41;;;10.45;100.00
58534;BME280;44109;52.398;7.024;2023-01-05T09:36:10;101595.13;;;10.22;100.00
58534;BME280;44109;52.398;7.024;2023-01-05T09:38:39;101617.09;;;10.51;100.00
58534;BME280;44109;52.398;7.024;2023-01-05T09:41:13;101623.19;;;10.57;100.00
58534;BME280;44109;52.398;7.024;2023-01-05T09:43:48;101625.09;;;10.40;100.00
58534;BME280;44109;52.398;7.024;2023-01-05T09:46:22;101625.19;;;10.44;100.00
58534;BME280;44109;52.398;7.024;2023-01-05T09:48:55;101617.91;;;10.39;100.00
58534;BME280;44109;52.398;7.024;2023-01-05T09:51:26;101637.44;;;10.43;100.00
58534;BME280;44109;52.398;7.024;2023-01-05T09:53:55;101632.13;;;10.50;100.00
58534;BME280;44109;52.398;7.024;2023-01-05T09:56:27;101641.56;;;10.61;100.00
58534;BME280;44109;52.398;7.024;2023-01-05T09:59:03;101644.09;;;10.79;100.00
58534;BME280;44109;52.398;7.024;2023-01-05T10:01:36;101643.28;;;10.66;100.00
58534;BME280;44109;52.398;7.024;2023-01-05T10:04:09;101649.66;;;11.07;100.00
58534;BME280;44109;52.398;7.024;2023-01-05T10:06:43;101655.88;;;11.16;100.00
58534;BME280;44109;52.398;7.024;2023-01-05T10:09:17;101645.53;;;11.29;100.00
58534;BME280;44109;52.398;7.024;2023-01-05T10:11:52;101657.75;;;11.12;100.00
58534;BME280;44109;52.398;7.024;2023-01-05T10:14:41;101650.56;;;10.83;100.00
58534;BME280;44109;52.398;7.024;2023-01-05T10:17:15;101644.59;;;11.09;100.00
58534;BME280;44109;52.398;7.024;2023-01-05T10:19:45;101641.75;;;11.49;100.00
58534;BME280;44109;52.398;7.024;2023-01-05T10:22:37;101619.84;;;11.04;100.00
58534;BME280;44109;52.398;7.024;2023-01-05T10:25:17;101655.63;;;10.81;100.00
58534;BME280;44109;52.398;7.024;2023-01-05T10:28:02;101642.72;;;11.13;100.00
58534;BME280;44109;52.398;7.024;2023-01-05T10:30:49;101659.16;;;11.06;100.00
58534;BME280;44109;52.398;7.024;2023-01-05T10:33:35;101648.25;;;11.41;100.00
58534;BME280;44109;52.398;7.024;2023-01-05T10:36:22;101656.31;;;10.90;100.00
58534;BME280;44109;52.398;7.024;2023-01-05T10:39:06;101663.00;;;11.01;100.00
58534;BME280;44109;52.398;7.024;2023-01-05T10:41:49;101673.56;;;11.24;100.00
58534;BME280;44109;52.398;7.024;2023-01-05T10:44:39;101681.13;;;10.46;100.00
58534;BME280;44109;52.398;7.024;2023-01-05T10:47:18;101676.25;;;10.68;100.00
58534;BME280;44109;52.398;7.024;2023-01-05T10:49:49;101674.91;;;10.49;100.00
58534;BME280;44109;52.398;7.024;2023-01-05T10:52:19;101679.16;;;10.34;100.00
58534;BME280;44109;52.398;7.024;2023-01-05T10:54:51;101642.84;;;9.90;100.00
58534;BME280;44109;52.398;7.024;2023-01-05T10:57:34;101689.41;;;10.09;100.00
58534;BME280;44109;52.398;7.024;2023-01-05T11:00:08;101683.63;;;10.14;100.00
58534;BME280;44109;52.398;7.024;2023-01-05T11:02:40;101683.41;;;10.20;100.00
58534;BME280;44109;52.398;7.024;2023-01-05T11:05:26;101676.28;;;10.43;100.00
58534;BME280;44109;52.398;7.024;2023-01-05T11:07:58;101679.72;;;10.52;100.00
58534;BME280;44109;52.398;7.024;2023-01-05T11:10:30;101684.25;;;10.45;100.00
58534;BME280;44109;52.398;7.024;2023-01-05T11:13:02;101688.97;;;10.44;100.00
58534;BME280;44109;52.398;7.024;2023-01-05T11:15:39;101685.97;;;10.61;100.00
58534;BME280;44109;52.398;7.024;2023-01-05T11:18:23;101693.25;;;10.66;100.00
58534;BME280;44109;52.398;7.024;2023-01-05T11:21:19;101702.50;;;10.70;100.00
58534;BME280;44109;52.398;7.024;2023-01-05T11:23:49;101686.56;;;10.55;100.00
58534;BME280;44109;52.398;7.024;2023-01-05T11:26:29;101691.38;;;10.95;100.00
58534;BME280;44109;52.398;7.024;2023-01-05T11:29:10;101706.34;;;11.18;100.00
58534;BME280;44109;52.398;7.024;2023-01-05T11:31:48;101688.06;;;10.64;100.00
58534;BME280;44109;52.398;7.024;2023-01-05T11:34:27;101691.38;;;10.82;100.00
58534;BME280;44109;52.398;7.024;2023-01-05T11:37:05;101698.03;;;11.06;100.00
58534;BME280;44109;52.398;7.024;2023-01-05T11:39:49;101679.88;;;11.08;100.00
58534;BME280;44109;52.398;7.024;2023-01-05T11:42:28;101689.34;;;11.35;100.00
58534;BME280;44109;52.398;7.024;2023-01-05T11:44:59;101690.47;;;11.47;100.00
58534;BME280;44109;52.398;7.024;2023-01-05T11:47:33;101680.13;;;11.31;100.00
58534;BME280;44109;52.398;7.024;2023-01-05T11:50:14;101685.78;;;11.35;100.00
58534;BME280;44109;52.398;7.024;2023-01-05T11:52:50;101678.19;;;11.48;100.00
58534;BME280;44109;52.398;7.024;2023-01-05T11:55:32;101687.97;;;11.13;100.00
58534;BME280;44109;52.398;7.024;2023-01-05T11:58:22;101687.56;;;11.27;100.00
58534;BME280;44109;52.398;7.024;2023-01-05T12:04:30;101687.38;;;11.08;100.00
58534;BME280;44109;52.398;7.024;2023-01-05T12:07:23;101704.53;;;11.38;100.00
58534;BME280;44109;52.398;7.024;2023-01-05T12:10:14;101695.03;;;11.39;100.00
58534;BME280;44109;52.398;7.024;2023-01-05T12:13:00;101695.50;;;11.01;100.00
58534;BME280;44109;52.398;7.024;2023-01-05T12:15:50;101680.63;;;11.21;100.00
58534;BME280;44109;52.398;7.024;2023-01-05T12:18:45;101686.91;;;11.62;100.00
58534;BME280;44109;52.398;7.024;2023-01-05T12:21:37;101702.03;;;11.49;100.00
58534;BME280;44109;52.398;7.024;2023-01-05T12:24:38;101697.47;;;11.40;100.00
58534;BME280;44109;52.398;7.024;2023-01-05T12:27:28;101693.81;;;11.52;100.00
58534;BME280;44109;52.398;7.024;2023-01-05T12:30:25;101692.75;;;11.57;100.00
58534;BME280;44109;52.398;7.024;2023-01-05T12:33:22;101702.09;;;11.64;100.00
58534;BME280;44109;52.398;7.024;2023-01-05T12:36:07;101699.59;;;11.31;100.00
58534;BME280;44109;52.398;7.024;2023-01-05T12:38:46;101701.28;;;11.64;100.00
58534;BME280;44109;52.398;7.024;2023-01-05T12:41:40;101709.97;;;11.62;100.00
58534;BME280;44109;52.398;7.024;2023-01-05T12:44:55;101709.78;;;11.55;100.00
58534;BME280;44109;52.398;7.024;2023-01-05T12:47:54;101708.97;;;11.55;100.00
58534;BME280;44109;52.398;7.024;2023-01-05T12:50:30;101703.97;;;11.76;100.00
58534;BME280;44109;52.398;7.024;2023-01-05T12:53:12;101686.38;;;11.84;100.00
58534;BME280;44109;52.398;7.024;2023-01-05T12:55:47;101700.75;;;11.58;100.00
58534;BME280;44109;52.398;7.024;2023-01-05T12:58:23;101696.78;;;12.03;100.00
58534;BME280;44109;52.398;7.024;2023-01-05T13:00:58;101698.25;;;12.13;100.00
58534;BME280;44109;52.398;7.024;2023-01-05T13:03:32;101704.50;;;12.10;100.00
58534;BME280;44109;52.398;7.024;2023-01-05T13:06:09;101694.72;;;12.16;100.00
58534;BME280;44109;52.398;7.024;2023-01-05T13:08:45;101704.06;;;12.08;100.00
58534;BME280;44109;52.398;7.024;2023-01-05T13:11:19;101697.31;;;11.93;100.00
58534;BME280;44109;52.398;7.024;2023-01-05T13:13:53;101700.94;;;12.09;100.00
58534;BME280;44109;52.398;7.024;2023-01-05T13:16:27;101715.72;;;12.29;100.00
58534;BME280;44109;52.398;7.024;2023-01-05T13:19:04;101713.03;;;12.17;100.00
58534;BME280;44109;52.398;7.024;2023-01-05T13:21:41;101702.72;;;12.17;100.00
58534;BME280;44109;52.398;7.024;2023-01-05T13:24:14;101714.00;;;11.93;100.00